createdAt,value
2022-10-11T00:01:12.499Z,102055.66
2022-10-11T00:02:44.045Z,102050.44
2022-10-11T00:04:15.573Z,102053.19
2022-10-11T00:05:47.027Z,102053.28
2022-10-11T00:07:18.922Z,102054.19
2022-10-11T00:08:51.724Z,102064.75
2022-10-11T00:10:26.211Z,102068.28
2022-10-11T00:11:59.532Z,102068.31
2022-10-11T00:13:31.103Z,102060.44
2022-10-11T00:15:05.419Z,102071.97
2022-10-11T00:16:39.810Z,102064.16
2022-10-11T00:18:11.267Z,102074.75
2022-10-11T00:19:44.871Z,102066.88
2022-10-11T00:21:16.428Z,102065.19
2022-10-11T00:22:49.314Z,102062.59
2022-10-11T00:24:22.347Z,102071.44
2022-10-11T00:25:56.509Z,102077.53
2022-10-11T00:27:28.255Z,102074.91
2022-10-11T00:28:59.734Z,102075.94
2022-10-11T00:30:31.604Z,102083.28
2022-10-11T00:32:03.159Z,102086.06
2022-10-11T00:33:34.895Z,102079.94
2022-10-11T00:35:06.976Z,102079.97
2022-10-11T00:36:38.508Z,102084.41
2022-10-11T00:38:10.192Z,102088.88
2022-10-11T00:39:43.036Z,102086.25
2022-10-11T00:41:14.847Z,102086.31
2022-10-11T00:42:46.978Z,102077.56
2022-10-11T00:44:20.425Z,102083.94
2022-10-11T00:46:04.274Z,102083.16
2022-10-11T00:47:35.926Z,102087.56
2022-10-11T00:49:13.457Z,102084.09
2022-10-11T00:50:45.040Z,102084.09
2022-10-11T00:52:20.500Z,102089.22
2022-10-11T00:53:52.772Z,102093.44
2022-10-11T00:55:26.799Z,102092.56
2022-10-11T00:56:59.891Z,102087.31
2022-10-11T00:58:33.093Z,102093.44
2022-10-11T01:00:07.318Z,102096.06
2022-10-11T01:01:38.905Z,102093.47
2022-10-11T01:03:10.576Z,102101.34
2022-10-11T01:04:42.247Z,102095.16
2022-10-11T01:06:13.763Z,102092.50
2022-10-11T01:07:46.841Z,102095.19
2022-10-11T01:09:19.372Z,102096.09
2022-10-11T01:10:52.390Z,102091.66
2022-10-11T01:12:24.702Z,102095.94
2022-10-11T01:14:07.126Z,102095.88
2022-10-11T01:15:42.423Z,102099.31
2022-10-11T01:17:20.745Z,102096.59
2022-10-11T01:19:00.479Z,102093.00
2022-10-11T01:20:43.253Z,102094.75
2022-10-11T01:22:22.455Z,102100.94
2022-10-11T01:24:08.583Z,102095.75
2022-10-11T01:25:50.765Z,102100.19
2022-10-11T01:27:43.188Z,102105.47
2022-10-11T01:29:24.880Z,102100.22
2022-10-11T01:31:02.290Z,102105.53
2022-10-11T01:32:36.922Z,102102.91
2022-10-11T01:34:11.788Z,102104.69
2022-10-11T01:35:46.621Z,102113.47
2022-10-11T01:37:23.804Z,102113.47
2022-10-11T01:38:58.372Z,102106.50
2022-10-11T01:40:33.660Z,102114.47
2022-10-11T01:42:07.532Z,102107.53
2022-10-11T01:43:40.450Z,102110.28
2022-10-11T01:45:13.926Z,102104.19
2022-10-11T01:46:46.704Z,102109.50
2022-10-11T01:48:18.412Z,102108.63
2022-10-11T01:49:53.091Z,102111.22
2022-10-11T01:51:29.286Z,102113.84
2022-10-11T01:53:06.438Z,102115.53
2022-10-11T01:55:10.217Z,102117.31
2022-10-11T01:56:56.604Z,102115.66
2022-10-11T01:58:34.245Z,102116.56
2022-10-11T02:00:10.943Z,102108.66
2022-10-11T02:01:49.775Z,102116.63
2022-10-11T02:03:28.896Z,102104.38
2022-10-11T02:05:03.558Z,102107.91
2022-10-11T02:06:39.906Z,102111.44
2022-10-11T02:08:16.187Z,102107.91
2022-10-11T02:09:50.879Z,102111.38
2022-10-11T02:11:24.370Z,102113.09
2022-10-11T02:12:59.921Z,102108.66
2022-10-11T02:14:34.865Z,102114.78
2022-10-11T02:16:10.062Z,102113.94
2022-10-11T02:17:44.669Z,102114.91
2022-10-11T02:19:19.066Z,102108.78
2022-10-11T02:20:51.473Z,102108.88
2022-10-11T02:22:25.756Z,102118.59
2022-10-11T02:24:00.291Z,102113.47
2022-10-11T02:25:34.606Z,102112.56
2022-10-11T02:27:06.432Z,102119.56
2022-10-11T02:28:39.747Z,102119.53
2022-10-11T02:30:11.503Z,102118.63
2022-10-11T02:31:43.732Z,102125.53
2022-10-11T02:33:18.464Z,102115.88
2022-10-11T02:34:53.591Z,102112.34
2022-10-11T02:36:26.763Z,102116.75
2022-10-11T02:38:01.830Z,102122.88
2022-10-11T02:39:36.875Z,102120.22
2022-10-11T02:41:21.345Z,102118.44
2022-10-11T02:42:59.128Z,102125.44
2022-10-11T02:44:33.514Z,102120.25
2022-10-11T02:46:06.094Z,102126.50
2022-10-11T02:47:38.157Z,102124.75
2022-10-11T02:49:10.352Z,102129.19
2022-10-11T02:50:43.546Z,102137.09
2022-10-11T02:52:14.993Z,102141.50
2022-10-11T02:53:47.235Z,102137.13
2022-10-11T02:55:18.938Z,102139.78
2022-10-11T02:56:50.381Z,102141.56
2022-10-11T02:58:22.293Z,102142.41
2022-10-11T02:59:53.736Z,102141.56
2022-10-11T03:01:25.731Z,102144.28
2022-10-11T03:02:57.239Z,102149.63
2022-10-11T03:04:28.674Z,102145.34
2022-10-11T03:06:05.220Z,102142.72
2022-10-11T03:07:36.954Z,102147.97
2022-10-11T03:09:08.414Z,102150.53
2022-10-11T03:10:40.624Z,102156.66
2022-10-11T03:12:12.089Z,102149.66
2022-10-11T03:13:43.528Z,102155.78
2022-10-11T03:15:15.163Z,102159.31
2022-10-11T03:16:46.660Z,102155.78
2022-10-11T03:18:18.248Z,102159.28
2022-10-11T03:19:49.871Z,102151.47
2022-10-11T03:21:25.051Z,102162.84
2022-10-11T03:22:56.617Z,102154.97
2022-10-11T03:24:28.075Z,102163.75
2022-10-11T03:25:59.545Z,102159.38
2022-10-11T03:27:31.117Z,102159.38
2022-10-11T03:29:02.624Z,102156.75
2022-10-11T03:30:34.132Z,102159.38
2022-10-11T03:32:05.614Z,102162.06
2022-10-11T03:33:37.131Z,102165.63
2022-10-11T03:35:08.754Z,102169.28
2022-10-11T03:36:41.682Z,102168.44
2022-10-11T03:38:14.312Z,102172.91
2022-10-11T03:39:45.973Z,102168.53
2022-10-11T03:41:17.551Z,102177.28
2022-10-11T03:42:49.031Z,102172.00
2022-10-11T03:44:21.370Z,102176.34
2022-10-11T03:45:52.804Z,102179.06
2022-10-11T03:47:24.958Z,102176.44
2022-10-11T03:48:56.439Z,102182.59
2022-10-11T03:50:28.586Z,102178.22
2022-10-11T03:52:01.448Z,102175.59
2022-10-11T03:53:32.922Z,102179.09
2022-10-11T03:55:04.864Z,102182.56
2022-10-11T03:56:36.584Z,102186.94
2022-10-11T03:58:08.229Z,102180.81
2022-10-11T03:59:39.671Z,102180.84
2022-10-11T04:01:11.111Z,102184.38
2022-10-11T04:02:42.580Z,102181.72
2022-10-11T04:04:13.995Z,102182.59
2022-10-11T04:05:45.443Z,102184.47
2022-10-11T04:07:18.597Z,102181.84
2022-10-11T04:08:50.114Z,102180.94
2022-10-11T04:10:21.594Z,102180.88
2022-10-11T04:11:53.045Z,102189.59
2022-10-11T04:13:24.520Z,102188.81
2022-10-11T04:14:55.996Z,102192.34
2022-10-11T04:16:27.462Z,102194.97
2022-10-11T04:17:59.027Z,102187.09
2022-10-11T04:19:30.531Z,102194.16
2022-10-11T04:21:02.182Z,102201.25
2022-10-11T04:22:35.106Z,102191.59
2022-10-11T04:24:06.804Z,102191.59
2022-10-11T04:25:38.252Z,102196.88
2022-10-11T04:27:09.701Z,102196.00
2022-10-11T04:28:41.199Z,102203.03
2022-10-11T04:30:13.161Z,102200.41
2022-10-11T04:31:44.616Z,102198.66
2022-10-11T04:33:16.132Z,102204.78
2022-10-11T04:34:47.576Z,102196.91
2022-10-11T04:36:19.045Z,102204.78
2022-10-11T04:37:51.850Z,102203.94
2022-10-11T04:39:23.343Z,102203.94
2022-10-11T04:40:54.908Z,102205.78
2022-10-11T04:42:26.427Z,102208.38
2022-10-11T04:43:57.836Z,102201.38
2022-10-11T04:45:29.321Z,102208.38
2022-10-11T04:47:01.289Z,102204.84
2022-10-11T04:48:32.754Z,102212.69
2022-10-11T04:50:04.536Z,102210.06
2022-10-11T04:51:36.072Z,102213.53
2022-10-11T04:53:08.987Z,102224.03
2022-10-11T04:54:40.516Z,102214.38
2022-10-11T04:56:12.068Z,102221.38
2022-10-11T04:57:43.500Z,102217.03
2022-10-11T04:59:15.001Z,102214.41
2022-10-11T05:00:46.554Z,102224.94
2022-10-11T05:02:18.250Z,102223.19
2022-10-11T05:03:49.923Z,102225.81
2022-10-11T05:05:21.392Z,102217.06
2022-10-11T05:06:52.856Z,102225.03
2022-10-11T05:08:25.890Z,102230.31
2022-10-11T05:09:57.876Z,102233.81
2022-10-11T05:11:29.279Z,102224.22
2022-10-11T05:13:00.731Z,102226.03
2022-10-11T05:14:32.222Z,102226.91
2022-10-11T05:16:11.355Z,102224.31
2022-10-11T05:17:43.240Z,102222.66
2022-10-11T05:19:14.670Z,102229.66
2022-10-11T05:20:46.162Z,102228.78
2022-10-11T05:22:17.630Z,102226.16
2022-10-11T05:23:51.634Z,102231.41
2022-10-11T05:25:23.106Z,102228.78
2022-10-11T05:26:54.658Z,102231.34
2022-10-11T05:28:26.571Z,102234.84
2022-10-11T05:29:58.087Z,102237.47
2022-10-11T05:31:29.609Z,102240.97
2022-10-11T05:33:01.112Z,102247.09
2022-10-11T05:34:32.547Z,102244.47
2022-10-11T05:36:04.759Z,102243.59
2022-10-11T05:37:36.496Z,102247.16
2022-10-11T05:39:09.255Z,102249.78
2022-10-11T05:40:40.728Z,102257.69
2022-10-11T05:42:12.281Z,102249.78
2022-10-11T05:43:44.779Z,102252.47
2022-10-11T05:45:16.285Z,102249.88
2022-10-11T05:46:47.824Z,102247.25
2022-10-11T05:48:19.369Z,102251.63
2022-10-11T05:49:50.919Z,102257.72
2022-10-11T05:51:22.334Z,102255.09
2022-10-11T05:52:53.919Z,102253.31
2022-10-11T05:54:28.817Z,102256.78
2022-10-11T05:56:00.287Z,102266.44
2022-10-11T05:57:31.838Z,102269.03
2022-10-11T05:59:04.188Z,102267.28
2022-10-11T06:00:36.909Z,102271.66
2022-10-11T06:02:09.981Z,102273.41
2022-10-11T06:03:41.408Z,102269.88
2022-10-11T06:05:13.179Z,102265.50
2022-10-11T06:06:44.692Z,102271.66
2022-10-11T06:08:17.271Z,102271.69
2022-10-11T06:09:50.688Z,102280.41
2022-10-11T06:11:25.158Z,102274.28
2022-10-11T06:12:56.639Z,102276.91
2022-10-11T06:14:28.193Z,102276.91
2022-10-11T06:15:59.608Z,102277.78
2022-10-11T06:17:31.422Z,102278.66
2022-10-11T06:19:03.636Z,102285.66
2022-10-11T06:20:35.138Z,102284.81
2022-10-11T06:22:06.613Z,102283.06
2022-10-11T06:23:38.084Z,102280.41
2022-10-11T06:25:11.067Z,102281.28
2022-10-11T06:26:42.521Z,102291.75
2022-10-11T06:28:13.977Z,102289.97
2022-10-11T06:29:45.604Z,102289.97
2022-10-11T06:31:17.014Z,102287.34
2022-10-11T06:32:48.517Z,102289.13
2022-10-11T06:34:20.133Z,102299.63
2022-10-11T06:35:57.469Z,102294.41
2022-10-11T06:37:29.290Z,102292.66
2022-10-11T06:39:01.437Z,102304.94
2022-10-11T06:40:34.335Z,102304.94
2022-10-11T06:42:05.993Z,102305.81
2022-10-11T06:43:37.490Z,102304.06
2022-10-11T06:45:09.447Z,102306.66
2022-10-11T06:46:41.385Z,102307.50
2022-10-11T06:48:12.924Z,102306.59
2022-10-11T06:49:44.398Z,102308.34
2022-10-11T06:51:16.792Z,102313.59
2022-10-11T06:52:48.326Z,102320.53
2022-10-11T06:54:19.832Z,102313.47
2022-10-11T06:55:52.630Z,102317.81
2022-10-11T06:57:24.499Z,102330.03
2022-10-11T06:58:57.095Z,102332.66
2022-10-11T07:00:28.732Z,102328.25
2022-10-11T07:02:00.275Z,102328.25
2022-10-11T07:03:31.889Z,102327.38
2022-10-11T07:05:03.520Z,102330.00
2022-10-11T07:06:36.911Z,102333.44
2022-10-11T07:08:08.424Z,102335.16
2022-10-11T07:09:40.219Z,102329.88
2022-10-11T07:11:13.760Z,102343.91
2022-10-11T07:12:45.215Z,102336.88
2022-10-11T07:14:16.745Z,102335.94
2022-10-11T07:15:48.176Z,102335.03
2022-10-11T07:17:19.702Z,102335.88
2022-10-11T07:18:57.190Z,102343.69
2022-10-11T07:20:31.224Z,102333.16
2022-10-11T07:22:02.739Z,102350.66
2022-10-11T07:23:34.278Z,102354.19
2022-10-11T07:25:06.274Z,102348.94
2022-10-11T07:26:39.444Z,102354.19
2022-10-11T07:28:11.141Z,102348.88
2022-10-11T07:29:43.122Z,102357.63
2022-10-11T07:31:18.870Z,102358.47
2022-10-11T07:32:50.679Z,102361.06
2022-10-11T07:34:22.841Z,102364.53
2022-10-11T07:35:56.986Z,102363.56
2022-10-11T07:37:28.516Z,102367.06
2022-10-11T07:39:00.268Z,102362.63
2022-10-11T07:40:31.966Z,102366.09
2022-10-11T07:42:04.949Z,102361.72
2022-10-11T07:43:36.738Z,102359.00
2022-10-11T07:45:08.591Z,102369.44
2022-10-11T07:46:41.242Z,102359.75
2022-10-11T07:48:13.130Z,102356.19
2022-10-11T07:49:44.647Z,102364.81
2022-10-11T07:51:17.109Z,102363.97
2022-10-11T07:52:48.627Z,102363.94
2022-10-11T07:54:20.199Z,102366.50
2022-10-11T07:55:51.698Z,102359.47
2022-10-11T07:57:24.580Z,102367.38
2022-10-11T07:58:57.290Z,102369.09
2022-10-11T08:00:28.810Z,102364.75
2022-10-11T08:02:00.520Z,102372.63
2022-10-11T08:03:32.179Z,102370.84
2022-10-11T08:05:03.932Z,102378.75
2022-10-11T08:06:36.506Z,102377.03
2022-10-11T08:08:07.999Z,102371.72
2022-10-11T08:09:39.512Z,102375.28
2022-10-11T08:11:18.919Z,102374.41
2022-10-11T08:12:51.985Z,102365.66
2022-10-11T08:14:23.543Z,102371.81
2022-10-11T08:15:55.294Z,102372.69
2022-10-11T08:17:26.808Z,102375.28
2022-10-11T08:18:58.340Z,102376.13
2022-10-11T08:20:31.134Z,102378.78
2022-10-11T08:22:02.842Z,102375.31
2022-10-11T08:23:34.379Z,102377.94
2022-10-11T08:25:06.141Z,102377.94
2022-10-11T08:26:37.707Z,102378.84
2022-10-11T08:28:15.712Z,102385.88
2022-10-11T08:29:47.311Z,102387.59
2022-10-11T08:31:19.031Z,102390.19
2022-10-11T08:32:50.458Z,102396.28
2022-10-11T08:34:22.139Z,102398.00
2022-10-11T08:35:54.020Z,102396.16
2022-10-11T08:37:25.526Z,102402.19
2022-10-11T08:38:57.755Z,102401.19
2022-10-11T08:40:34.282Z,102396.72
2022-10-11T08:42:10.859Z,102400.97
2022-10-11T08:43:51.328Z,102397.38
2022-10-11T08:45:27.038Z,102410.44
2022-10-11T08:47:00.641Z,102400.72
2022-10-11T08:48:33.416Z,102397.16
2022-10-11T08:50:05.725Z,102390.94
2022-10-11T08:51:42.548Z,102400.50
2022-10-11T08:53:18.011Z,102396.97
2022-10-11T08:54:51.429Z,102404.81
2022-10-11T08:56:23.978Z,102395.91
2022-10-11T08:57:56.523Z,102397.63
2022-10-11T08:59:33.095Z,102394.91
2022-10-11T09:01:07.104Z,102410.63
2022-10-11T09:03:06.971Z,102406.09
2022-10-11T09:04:36.073Z,102408.59
2022-10-11T09:06:12.530Z,102399.78
2022-10-11T09:07:48.213Z,102402.38
2022-10-11T09:09:25.493Z,102397.94
2022-10-11T09:10:59.535Z,102398.75
2022-10-11T09:12:39.804Z,102391.84
2022-10-11T09:14:19.639Z,102392.72
2022-10-11T09:15:57.005Z,102400.59
2022-10-11T09:17:36.220Z,102394.28
2022-10-11T09:19:21.768Z,102402.09
2022-10-11T09:20:59.779Z,102402.88
2022-10-11T09:22:36.793Z,102401.03
2022-10-11T09:24:23.454Z,102400.06
2022-10-11T09:25:58.294Z,102406.09
2022-10-11T09:27:57.364Z,102409.63
2022-10-11T09:29:30.190Z,102412.25
2022-10-11T09:31:03.092Z,102405.22
2022-10-11T09:32:37.664Z,102403.44
2022-10-11T09:34:11.154Z,102408.69
2022-10-11T09:35:44.268Z,102402.66
2022-10-11T09:37:19.441Z,102408.03
2022-10-11T09:38:54.459Z,102406.34
2022-10-11T09:40:33.931Z,102400.22
2022-10-11T09:42:07.669Z,102406.50
2022-10-11T09:43:39.326Z,102406.50
2022-10-11T09:45:14.264Z,102417.16
2022-10-11T09:46:48.030Z,102401.34
2022-10-11T09:48:20.986Z,102406.59
2022-10-11T09:49:54.476Z,102401.34
2022-10-11T09:51:27.360Z,102405.72
2022-10-11T09:53:00.057Z,102406.50
2022-10-11T09:54:42.036Z,102415.28
2022-10-11T09:56:13.666Z,102413.47
2022-10-11T09:57:54.108Z,102415.19
2022-10-11T09:59:27.191Z,102413.41
2022-10-11T10:01:05.139Z,102420.38
2022-10-11T10:02:41.969Z,102416.78
2022-10-11T10:04:14.460Z,102414.16
2022-10-11T10:05:45.915Z,102415.00
2022-10-11T10:07:17.643Z,102410.66
2022-10-11T10:08:50.486Z,102412.38
2022-10-11T10:10:26.525Z,102415.06
2022-10-11T10:11:58.012Z,102415.09
2022-10-11T10:13:34.869Z,102410.69
2022-10-11T10:15:07.961Z,102414.19
2022-10-11T10:16:39.395Z,102410.56
2022-10-11T10:18:18.689Z,102417.38
2022-10-11T10:19:51.754Z,102418.94
2022-10-11T10:21:25.351Z,102413.56
2022-10-11T10:22:57.044Z,102409.94
2022-10-11T10:24:35.911Z,102421.44
2022-10-11T10:26:15.681Z,102412.72
2022-10-11T10:27:55.736Z,102419.03
2022-10-11T10:29:27.168Z,102417.28
2022-10-11T10:30:59.769Z,102410.16
2022-10-11T10:32:34.254Z,102422.38
2022-10-11T10:34:12.525Z,102422.16
2022-10-11T10:35:46.521Z,102420.13
2022-10-11T10:37:22.684Z,102420.72
2022-10-11T10:38:57.020Z,102412.75
2022-10-11T10:40:32.391Z,102414.63
2022-10-11T10:42:06.390Z,102415.56
2022-10-11T10:43:39.749Z,102408.56
2022-10-11T10:45:18.754Z,102406.78
2022-10-11T10:46:58.951Z,102403.16
2022-10-11T10:49:11.638Z,102412.69
2022-10-11T10:50:30.790Z,102406.44
2022-10-11T10:52:24.143Z,102405.41
2022-10-11T10:53:59.022Z,102402.53
2022-10-11T10:55:34.308Z,102398.25
2022-10-11T10:57:10.989Z,102402.63
2022-10-11T10:58:49.904Z,102403.41
2022-10-11T11:00:22.403Z,102403.22
2022-10-11T11:01:56.118Z,102399.47
2022-10-11T11:03:33.606Z,102407.97
2022-10-11T11:05:11.613Z,102398.00
2022-10-11T11:06:49.375Z,102398.69
2022-10-11T11:08:29.739Z,102403.13
2022-10-11T11:10:03.425Z,102399.69
2022-10-11T11:11:39.721Z,102396.34
2022-10-11T11:13:19.368Z,102401.81
2022-10-11T11:14:55.317Z,102402.06
2022-10-11T11:16:30.796Z,102395.09
2022-10-11T11:18:11.093Z,102397.91
2022-10-11T11:19:51.888Z,102393.56
2022-10-11T11:21:29.053Z,102392.72
2022-10-11T11:23:09.120Z,102392.59
2022-10-11T11:24:46.719Z,102392.47
2022-10-11T11:26:21.300Z,102392.44
2022-10-11T11:28:01.820Z,102390.53
2022-10-11T11:29:43.513Z,102393.19
2022-10-11T11:31:20.828Z,102386.09
2022-10-11T11:32:56.381Z,102377.31
2022-10-11T11:34:30.599Z,102384.38
2022-10-11T11:36:03.646Z,102385.19
2022-10-11T11:37:38.081Z,102381.56
2022-10-11T11:39:14.586Z,102378.84
2022-10-11T11:40:49.630Z,102378.78
2022-10-11T11:42:23.363Z,102370.81
2022-10-11T11:43:59.139Z,102371.66
2022-10-11T11:45:33.704Z,102369.78
2022-10-11T11:47:10.444Z,102366.16
2022-10-11T11:48:43.144Z,102356.44
2022-10-11T11:50:22.667Z,102359.91
2022-10-11T11:51:55.086Z,102358.09
2022-10-11T11:53:48.582Z,102351.94
2022-10-11T11:55:24.279Z,102354.59
2022-10-11T11:57:00.428Z,102356.28
2022-10-11T11:58:36.980Z,102349.22
2022-10-11T12:00:14.469Z,102343.94
2022-10-11T12:01:48.754Z,102357.03
2022-10-11T12:03:23.428Z,102354.28
2022-10-11T12:04:55.440Z,102349.81
2022-10-11T12:06:28.838Z,102342.75
2022-10-11T12:08:02.145Z,102344.53
2022-10-11T12:09:34.565Z,102346.25
2022-10-11T12:11:19.454Z,102349.00
2022-10-11T12:13:01.286Z,102344.66
2022-10-11T12:14:37.823Z,102346.34
2022-10-11T12:16:10.904Z,102344.47
2022-10-11T12:17:57.475Z,102341.75
2022-10-11T12:19:28.938Z,102332.78
2022-10-11T12:21:02.106Z,102337.00
2022-10-11T12:22:37.958Z,102332.44
2022-10-11T12:24:10.622Z,102334.06
2022-10-11T12:25:45.144Z,102332.13
2022-10-11T12:27:31.455Z,102322.16
2022-10-11T12:29:25.884Z,102326.38
2022-10-11T12:31:04.567Z,102322.56
2022-10-11T12:32:51.159Z,102310.72
2022-10-11T12:34:34.423Z,102311.19
2022-10-11T12:36:22.878Z,102308.06
2022-10-11T12:38:02.698Z,102307.59
2022-10-11T12:39:42.391Z,102309.78
2022-10-11T12:41:28.706Z,102315.47
2022-10-11T12:43:10.804Z,102308.88
2022-10-11T12:45:03.585Z,102302.22
2022-10-11T12:46:39.540Z,102297.31
2022-10-11T12:48:19.497Z,102303.00
2022-10-11T12:49:59.327Z,102300.88
2022-10-11T12:51:35.082Z,102296.94
2022-10-11T12:53:11.890Z,102303.66
2022-10-11T12:55:04.444Z,102292.63
2022-10-11T12:56:42.488Z,102290.50
2022-10-11T12:58:27.687Z,102291.91
2022-10-11T13:00:16.046Z,102293.38
2022-10-11T13:01:48.755Z,102291.31
2022-10-11T13:03:31.204Z,102292.84
2022-10-11T13:05:08.152Z,102285.41
2022-10-11T13:06:45.239Z,102286.78
2022-10-11T13:08:20.414Z,102288.03
2022-10-11T13:09:53.984Z,102280.38
2022-10-11T13:11:28.120Z,102280.84
2022-10-11T13:13:04.211Z,102290.06
2022-10-11T13:14:37.503Z,102279.84
2022-10-11T13:16:13.789Z,102280.44
2022-10-11T13:17:45.427Z,102277.38
2022-10-11T13:19:17.376Z,102278.78
2022-10-11T13:20:48.886Z,102277.56
2022-10-11T13:22:22.719Z,102278.81
2022-10-11T13:23:54.699Z,102271.25
2022-10-11T13:25:27.407Z,102266.22
2022-10-11T13:26:58.886Z,102273.84
2022-10-11T13:28:35.584Z,102272.31
2022-10-11T13:30:11.276Z,102273.13
2022-10-11T13:31:45.140Z,102262.53
2022-10-11T13:33:18.958Z,102270.41
2022-10-11T13:34:53.657Z,102265.84
2022-10-11T13:36:26.786Z,102265.44
2022-10-11T13:37:58.546Z,102256.66
2022-10-11T13:39:31.625Z,102258.56
2022-10-11T13:41:04.728Z,102251.75
2022-10-11T13:42:36.247Z,102256.34
2022-10-11T13:44:09.054Z,102255.56
2022-10-11T13:45:41.329Z,102246.97
2022-10-11T13:47:15.286Z,102253.69
2022-10-11T13:48:56.197Z,102256.72
2022-10-11T13:50:33.588Z,102256.16
2022-10-11T13:52:17.436Z,102253.59
2022-10-11T13:53:58.635Z,102252.31
2022-10-11T13:55:32.098Z,102257.38
2022-10-11T13:57:03.897Z,102250.88
2022-10-11T13:58:38.589Z,102241.94
2022-10-11T14:00:30.723Z,102242.22
2022-10-11T14:02:04.314Z,102242.72
2022-10-11T14:03:41.128Z,102247.41
2022-10-11T14:05:21.241Z,102246.09
2022-10-11T14:06:54.454Z,102244.94
2022-10-11T14:08:30.578Z,102246.38
2022-10-11T14:10:02.236Z,102239.56
2022-10-11T14:11:34.711Z,102244.19
2022-10-11T14:13:07.516Z,102238.28
2022-10-11T14:14:40.989Z,102237.72
2022-10-11T14:16:14.098Z,102231.94
2022-10-11T14:17:45.819Z,102236.16
2022-10-11T14:19:20.003Z,102240.06
2022-10-11T14:20:51.607Z,102238.03
2022-10-11T14:22:23.047Z,102241.06
2022-10-11T14:23:55.839Z,102235.53
2022-10-11T14:25:27.309Z,102232.63
2022-10-11T14:26:59.086Z,102231.06
2022-10-11T14:28:30.583Z,102219.19
2022-10-11T14:31:56.534Z,102231.00
2022-10-11T14:33:28.020Z,102226.78
2022-10-11T14:35:00.867Z,102227.09
2022-10-11T14:36:32.525Z,102234.59
2022-10-11T14:38:03.996Z,102227.69
2022-10-11T14:39:35.526Z,102226.00
2022-10-11T14:41:07.006Z,102230.88
2022-10-11T14:42:38.449Z,102232.25
2022-10-11T14:44:10.005Z,102222.81
2022-10-11T14:45:41.502Z,102229.25
2022-10-11T14:47:14.721Z,102227.00
2022-10-11T14:49:01.452Z,102230.00
2022-10-11T14:50:36.780Z,102235.59
2022-10-11T14:52:10.795Z,102228.38
2022-10-11T14:53:46.163Z,102219.63
2022-10-11T14:55:17.590Z,102228.13
2022-10-11T14:56:49.556Z,102229.22
2022-10-11T14:58:21.033Z,102232.03
2022-10-11T14:59:52.498Z,102226.72
2022-10-11T15:01:24.276Z,102227.78
2022-10-11T15:02:56.010Z,102222.47
2022-10-11T15:04:27.687Z,102222.38
2022-10-11T15:06:00.530Z,102218.94
2022-10-11T15:07:33.051Z,102213.69
2022-10-11T15:09:04.789Z,102216.34
2022-10-11T15:10:37.068Z,102219.00
2022-10-11T15:12:08.950Z,102215.44
2022-10-11T15:13:40.377Z,102205.66
2022-10-11T15:15:16.737Z,102210.88
2022-10-11T15:16:48.587Z,102206.38
2022-10-11T15:18:21.162Z,102218.00
2022-10-11T15:19:52.599Z,102212.88
2022-10-11T15:21:26.881Z,102206.66
2022-10-11T15:22:58.934Z,102213.00
2022-10-11T15:24:30.420Z,102209.78
2022-10-11T15:26:01.932Z,102203.75
2022-10-11T15:27:33.358Z,102211.72
2022-10-11T15:29:05.980Z,102205.47
2022-10-11T15:30:41.372Z,102207.50
2022-10-11T15:32:13.118Z,102205.25
2022-10-11T15:33:44.708Z,102209.66
2022-10-11T15:35:16.604Z,102208.69
2022-10-11T15:36:49.967Z,102210.47
2022-10-11T15:38:22.406Z,102213.13
2022-10-11T15:39:53.854Z,102211.44
2022-10-11T15:41:25.395Z,102208.84
2022-10-11T15:42:56.937Z,102213.34
2022-10-11T15:44:28.395Z,102213.34
2022-10-11T15:45:59.980Z,102215.31
2022-10-11T15:47:31.447Z,102210.13
2022-10-11T15:49:06.642Z,102211.16
2022-10-11T15:50:38.374Z,102199.72
2022-10-11T15:52:11.330Z,102205.91
2022-10-11T15:53:42.872Z,102202.31
2022-10-11T15:55:14.426Z,102205.94
2022-10-11T15:56:45.852Z,102203.59
2022-10-11T15:58:18.128Z,102196.56
2022-10-11T15:59:49.559Z,102198.50
2022-10-11T16:01:21.099Z,102199.63
2022-10-11T16:02:53.260Z,102202.38
2022-10-11T16:04:24.725Z,102195.44
2022-10-11T16:05:58.926Z,102193.81
2022-10-11T16:07:35.386Z,102197.50
2022-10-11T16:09:07.112Z,102187.25
2022-10-11T16:10:38.761Z,102192.97
2022-10-11T16:12:10.251Z,102196.72
2022-10-11T16:13:41.720Z,102194.28
2022-10-11T16:15:13.605Z,102191.63
2022-10-11T16:16:45.044Z,102194.28
2022-10-11T16:18:21.031Z,102189.91
2022-10-11T16:19:52.502Z,102200.56
2022-10-11T16:21:24.153Z,102192.69
2022-10-11T16:22:57.467Z,102189.13
2022-10-11T16:24:28.926Z,102193.63
2022-10-11T16:26:01.420Z,102197.19
2022-10-11T16:27:33.393Z,102197.41
2022-10-11T16:29:05.013Z,102195.78
2022-10-11T16:30:38.763Z,102200.25
2022-10-11T16:32:10.268Z,102200.44
2022-10-11T16:33:47.786Z,102202.31
2022-10-11T16:35:19.373Z,102194.66
2022-10-11T16:36:50.979Z,102197.41
2022-10-11T16:38:23.958Z,102195.06
2022-10-11T16:39:55.448Z,102196.88
2022-10-11T16:41:26.943Z,102199.75
2022-10-11T16:42:58.416Z,102199.84
2022-10-11T16:44:29.859Z,102199.06
2022-10-11T16:46:01.347Z,102194.78
2022-10-11T16:47:32.871Z,102201.16
2022-10-11T16:49:04.570Z,102199.47
2022-10-11T16:50:39.538Z,102201.19
2022-10-11T16:52:13.913Z,102200.28
2022-10-11T16:53:46.793Z,102192.44
2022-10-11T16:55:18.294Z,102196.00
2022-10-11T16:56:50.064Z,102196.06
2022-10-11T16:58:21.496Z,102197.06
2022-10-11T16:59:52.941Z,102199.75
2022-10-11T17:01:24.822Z,102200.72
2022-10-11T17:02:56.316Z,102206.09
2022-10-11T17:04:27.786Z,102199.97
2022-10-11T17:05:59.199Z,102201.75
2022-10-11T17:07:31.250Z,102199.19
2022-10-11T17:09:04.574Z,102196.72
2022-10-11T17:10:44.386Z,102199.50
2022-10-11T17:12:17.048Z,102198.75
2022-10-11T17:13:48.949Z,102193.63
2022-10-11T17:15:21.782Z,102198.09
2022-10-11T17:16:53.395Z,102203.63
2022-10-11T17:18:24.887Z,102198.50
2022-10-11T17:19:56.322Z,102198.66
2022-10-11T17:21:27.987Z,102203.38
2022-10-11T17:22:59.510Z,102199.97
2022-10-11T17:24:34.268Z,102197.44
2022-10-11T17:26:11.015Z,102196.69
2022-10-11T17:27:42.937Z,102200.34
2022-10-11T17:29:15.081Z,102200.66
2022-10-11T17:30:52.231Z,102202.78
2022-10-11T17:32:23.688Z,102204.72
2022-10-11T17:33:57.515Z,102206.69
2022-10-11T17:35:30.831Z,102201.50
2022-10-11T17:37:02.582Z,102203.34
2022-10-11T17:38:34.090Z,102203.34
2022-10-11T17:40:07.893Z,102198.09
2022-10-11T17:41:39.400Z,102202.59
2022-10-11T17:43:11.185Z,102207.00
2022-10-11T17:44:42.634Z,102195.53
2022-10-11T17:46:15.165Z,102203.44
2022-10-11T17:47:46.714Z,102205.13
2022-10-11T17:49:18.261Z,102196.25
2022-10-11T17:50:50.838Z,102199.78
2022-10-11T17:52:22.443Z,102199.72
2022-10-11T17:53:54.201Z,102200.63
2022-10-11T17:55:26.996Z,102196.34